Time;durP1;ratioP1;P1;durP2;ratioP2;P2;SDS_P1;SDS_P2;PMS_P1;PMS_P2;Temp;Humidity;BMP_temperature;BMP_pressure;BME280_temperature;BME280_humidity;BME280_pressure;Samples;Min_cycle;Max_cycle;Signal;HPM_P1;HPM_P2
2021/07/08 00:00:01;;;;;;;4.30;4.05;;;;;;;20.48;67.49;101650.66;699106;28;22364;-58
2021/07/08 00:00:24;;;;;;;4.20;3.80;;;;;;;20.48;67.39;101647.91;697902;28;46499;-60
2021/07/08 00:00:49;;;;;;;3.97;3.78;;;;;;;20.46;67.41;101655.53;696282;28;92056;-60
2021/07/08 00:01:11;;;;;;;4.10;3.70;;;;;;;20.46;67.40;101652.78;695652;28;90740;-60
2021/07/08 00:01:34;;;;;;;4.05;3.85;;;;;;;20.45;67.43;101648.38;699825;28;898;-60
2021/07/08 00:01:55;;;;;;;3.90;3.70;;;;;;;20.45;67.23;101653.84;697417;28;36843;-60
2021/07/08 00:02:16;;;;;;;3.47;3.30;;;;;;;20.45;67.46;101655.75;697467;28;45292;-60
2021/07/08 00:02:37;;;;;;;4.10;3.80;;;;;;;20.44;67.61;101652.19;699013;28;22386;-60
2021/07/08 00:03:00;;;;;;;4.10;3.70;;;;;;;20.44;67.57;101654.06;699306;28;22324;-60
2021/07/08 00:03:21;;;;;;;3.67;3.47;;;;;;;20.42;67.63;101657.03;698180;28;46312;-59
2021/07/08 00:03:42;;;;;;;4.00;3.70;;;;;;;20.43;67.56;101652.41;699106;28;23259;-60
2021/07/08 00:04:03;;;;;;;4.00;3.70;;;;;;;20.42;67.56;101654.28;699592;28;21544;-61
2021/07/08 00:04:25;;;;;;;4.00;3.78;;;;;;;20.40;67.48;101656.41;698529;28;46333;-61
2021/07/08 00:04:46;;;;;;;4.15;3.90;;;;;;;20.39;67.78;101653.91;699180;28;45241;-60
2021/07/08 00:05:10;;;;;;;4.05;3.78;;;;;;;20.38;67.68;101650.31;699866;28;22567;-59
2021/07/08 00:05:34;;;;;;;3.97;3.78;;;;;;;20.38;67.62;101653.06;697558;28;55750;-60
2021/07/08 00:05:56;;;;;;;4.25;3.85;;;;;;;20.39;67.73;101654.75;696854;28;92339;-61
2021/07/08 00:06:17;;;;;;;3.85;3.55;;;;;;;20.39;67.60;101652.03;698176;28;40700;-60
2021/07/08 00:06:39;;;;;;;4.15;3.95;;;;;;;20.38;67.69;101654.97;698917;28;20080;-59
2021/07/08 00:07:00;;;;;;;4.20;3.90;;;;;;;20.39;67.87;101648.41;697793;28;45253;-60
2021/07/08 00:07:21;;;;;;;3.60;3.40;;;;;;;20.38;67.81;101653.06;698893;28;23595;-61
2021/07/08 00:07:44;;;;;;;3.60;3.40;;;;;;;20.37;67.81;101650.53;698437;28;23405;-60
2021/07/08 00:08:06;;;;;;;3.97;3.60;;;;;;;20.37;67.72;101639.56;697905;28;67022;-58
2021/07/08 00:08:27;;;;;;;3.78;3.47;;;;;;;20.34;67.78;101646.31;698206;28;43655;-61
2021/07/08 00:08:50;;;;;;;4.18;3.58;;;;;;;20.34;67.86;101651.81;698255;28;22395;-60
2021/07/08 00:09:11;;;;;;;3.88;3.47;;;;;;;20.34;67.86;101649.94;696693;28;92224;-59
2021/07/08 00:09:32;;;;;;;3.80;3.60;;;;;;;20.35;67.73;101654.34;698759;28;9333;-60
2021/07/08 00:09:53;;;;;;;3.95;3.60;;;;;;;20.35;67.73;101654.34;699191;28;22548;-60
2021/07/08 00:10:17;;;;;;;4.10;3.70;;;;;;;20.35;67.73;101653.50;698866;28;23407;-61
2021/07/08 00:10:41;;;;;;;4.05;3.75;;;;;;;20.34;68.15;101649.94;698878;28;43850;-59
2021/07/08 00:11:03;;;;;;;3.70;3.50;;;;;;;20.35;67.71;101651.59;696528;28;98109;-60
2021/07/08 00:11:24;;;;;;;4.00;3.80;;;;;;;20.36;67.72;101646.97;699013;28;23460;-60
2021/07/08 00:11:45;;;;;;;3.90;3.60;;;;;;;20.35;67.20;101648.84;698424;28;44335;-61
2021/07/08 00:12:08;;;;;;;3.88;3.60;;;;;;;20.37;67.54;101651.38;698876;28;23755;-59
2021/07/08 00:12:29;;;;;;;4.30;3.90;;;;;;;20.38;67.61;101650.31;698764;28;43400;-61
2021/07/08 00:12:50;;;;;;;4.00;3.63;;;;;;;20.40;67.51;101652.84;698975;28;21510;-60
2021/07/08 00:13:11;;;;;;;4.00;3.70;;;;;;;20.41;67.42;101652.63;695934;28;22404;-61
2021/07/08 00:13:33;;;;;;;3.58;3.38;;;;;;;20.41;67.32;101649.88;696650;28;22388;-58
2021/07/08 00:13:54;;;;;;;3.83;3.63;;;;;;;20.42;67.34;101651.53;696187;28;31083;-60
2021/07/08 00:14:16;;;;;;;4.13;3.72;;;;;;;20.43;67.21;101652.41;695450;28;46251;-60
2021/07/08 00:14:37;;;;;;;4.05;3.75;;;;;;;20.44;67.07;101654.94;696411;28;23152;-59
2021/07/08 00:14:58;;;;;;;3.70;3.50;;;;;;;20.44;67.26;101652.19;696007;28;20845;-61
2021/07/08 00:15:20;;;;;;;3.58;3.38;;;;;;;20.45;67.14;101655.75;699198;28;22429;-59
2021/07/08 00:15:41;;;;;;;3.80;3.60;;;;;;;20.44;67.16;101648.59;698595;28;46438;-58
2021/07/08 00:16:03;;;;;;;3.90;3.60;;;;;;;20.46;67.20;101649.22;699178;28;18866;-60
2021/07/08 00:16:24;;;;;;;3.90;3.70;;;;;;;20.46;67.16;101651.97;699106;28;23404;-61
2021/07/08 00:16:46;;;;;;;3.97;3.78;;;;;;;20.46;67.02;101650.06;699444;28;14617;-60
2021/07/08 00:17:08;;;;;;;4.15;3.95;;;;;;;20.47;67.37;101642.66;698549;28;42487;-60
2021/07/08 00:17:29;;;;;;;3.90;3.70;;;;;;;20.47;67.09;101640.78;698965;28;35783;-61
2021/07/08 00:17:50;;;;;;;4.00;3.80;;;;;;;20.47;66.83;101638.03;698320;28;44323;-58
2021/07/08 00:18:13;;;;;;;4.13;3.83;;;;;;;20.47;66.97;101634.41;699206;28;21660;-60
2021/07/08 00:18:35;;;;;;;4.10;3.90;;;;;;;20.48;66.99;101638.84;697658;28;59969;-59
2021/07/08 00:18:57;;;;;;;3.90;3.70;;;;;;;20.47;67.03;101638.03;699937;28;892;-60
2021/07/08 00:19:18;;;;;;;3.80;3.60;;;;;;;20.48;66.84;101630.63;696576;28;45218;-59
2021/07/08 00:19:39;;;;;;;3.73;3.53;;;;;;;20.48;67.03;101638.84;697824;28;44434;-61
2021/07/08 00:20:00;;;;;;;3.83;3.53;;;;;;;20.47;66.94;101635.28;699125;28;41991;-60
2021/07/08 00:20:24;;;;;;;4.30;3.78;;;;;;;20.48;67.13;101641.59;698669;28;45292;-60
2021/07/08 00:20:46;;;;;;;4.50;4.10;;;;;;;20.47;67.03;101634.41;696490;28;93026;-61
2021/07/08 00:21:07;;;;;;;3.80;3.60;;;;;;;20.45;67.06;101637.38;697612;28;42239;-61
2021/07/08 00:21:28;;;;;;;3.80;3.60;;;;;;;20.45;67.00;101636.56;699529;28;22399;-60
2021/07/08 00:21:51;;;;;;;3.83;3.63;;;;;;;20.41;67.12;101629.84;699212;28;1018;-61
2021/07/08 00:22:13;;;;;;;4.18;3.88;;;;;;;20.41;66.97;101636.16;699134;28;2015;-57
2021/07/08 00:22:35;;;;;;;3.90;3.70;;;;;;;20.42;67.20;101637.81;700333;28;894;-60
2021/07/08 00:22:57;;;;;;;4.15;3.95;;;;;;;20.43;67.12;101633.19;698940;28;1979;-61
2021/07/08 00:23:21;;;;;;;4.22;4.00;;;;;;;20.41;66.87;101636.16;699344;28;1968;-59
2021/07/08 00:23:42;;;;;;;4.10;3.80;;;;;;;20.42;66.96;101643.31;698574;28;50895;-60
2021/07/08 00:24:06;;;;;;;4.20;3.90;;;;;;;20.43;67.03;101636.78;699581;28;918;-60
2021/07/08 00:24:27;;;;;;;4.20;3.90;;;;;;;20.43;67.03;101636.78;697204;28;64868;-60
2021/07/08 00:24:49;;;;;;;4.30;4.00;;;;;;;20.44;66.94;101629.38;699666;28;19327;-61
2021/07/08 00:25:12;;;;;;;4.53;4.15;;;;;;;20.45;66.92;101631.06;698663;28;45265;-61
2021/07/08 00:25:35;;;;;;;4.40;4.10;;;;;;;20.45;66.63;101639.31;697556;28;61980;-61
2021/07/08 00:25:57;;;;;;;4.35;4.05;;;;;;;20.44;67.02;101638.47;697813;28;63358;-59
2021/07/08 00:26:18;;;;;;;4.45;3.90;;;;;;;20.45;66.83;101631.06;697269;28;44834;-60
2021/07/08 00:26:39;;;;;;;4.40;4.00;;;;;;;20.45;66.79;101631.06;699590;28;10011;-60
2021/07/08 00:27:00;;;;;;;4.35;4.00;;;;;;;20.47;66.79;101635.28;701203;28;23417;-61
2021/07/08 00:27:22;;;;;;;4.10;3.90;;;;;;;20.48;66.77;101638.84;694141;28;46476;-59
2021/07/08 00:27:44;;;;;;;4.20;4.00;;;;;;;20.48;66.71;101641.59;697027;28;15877;-61
2021/07/08 00:28:06;;;;;;;4.40;4.10;;;;;;;20.48;66.50;101641.59;694433;28;43173;-61
2021/07/08 00:28:28;;;;;;;4.20;3.90;;;;;;;20.48;66.96;101642.44;695527;28;46770;-60
2021/07/08 00:28:49;;;;;;;4.20;3.88;;;;;;;20.48;66.60;101641.59;696490;28;23664;-61
2021/07/08 00:29:10;;;;;;;4.22;3.83;;;;;;;20.48;66.72;101638.84;695737;28;31769;-59
2021/07/08 00:29:32;;;;;;;4.03;3.80;;;;;;;20.47;66.43;101635.28;698540;28;22298;-59
2021/07/08 00:29:53;;;;;;;4.28;3.97;;;;;;;20.47;66.64;101646.25;699473;28;23640;-61
2021/07/08 00:30:15;;;;;;;4.03;3.83;;;;;;;20.46;66.98;101635.50;699430;28;22399;-61
2021/07/08 00:30:37;;;;;;;4.40;4.00;;;;;;;20.47;66.80;101637.16;697851;28;67462;-60
2021/07/08 00:30:58;;;;;;;4.20;3.90;;;;;;;20.46;66.53;101644.56;698580;28;44378;-61
2021/07/08 00:31:20;;;;;;;4.13;3.80;;;;;;;20.44;66.57;101641.22;698835;28;24629;-60
2021/07/08 00:31:41;;;;;;;4.40;4.00;;;;;;;20.44;66.89;101632.97;698682;28;45225;-61
2021/07/08 00:32:04;;;;;;;4.32;4.03;;;;;;;20.41;66.93;101641.66;699583;28;24325;-61
2021/07/08 00:32:25;;;;;;;4.57;4.28;;;;;;;20.41;66.81;101640.81;698439;28;46416;-61
2021/07/08 00:32:48;;;;;;;4.75;4.35;;;;;;;20.40;66.93;101637.22;699089;28;22180;-61
2021/07/08 00:33:09;;;;;;;4.50;4.10;;;;;;;20.41;66.85;101635.34;697989;28;69600;-60
2021/07/08 00:33:31;;;;;;;4.20;3.90;;;;;;;20.40;67.08;101637.22;698201;28;46286;-61
2021/07/08 00:33:52;;;;;;;4.37;4.07;;;;;;;20.40;66.85;101634.47;697393;28;69410;-60
2021/07/08 00:34:13;;;;;;;4.35;4.05;;;;;;;20.39;66.84;101635.56;699289;28;17228;-60
2021/07/08 00:34:34;;;;;;;4.50;4.10;;;;;;;20.38;66.93;101639.34;699042;28;23444;-61
2021/07/08 00:34:55;;;;;;;5.10;4.22;;;;;;;20.37;66.90;101640.41;699378;28;22306;-61
2021/07/08 00:35:16;;;;;;;4.75;4.35;;;;;;;20.38;66.89;101635.78;699072;28;22409;-59
2021/07/08 00:35:39;;;;;;;4.47;4.18;;;;;;;20.35;66.99;101634.31;699497;28;15730;-60
2021/07/08 00:36:00;;;;;;;4.32;4.03;;;;;;;20.36;67.12;101633.25;698323;28;46297;-61
2021/07/08 00:36:21;;;;;;;4.30;3.92;;;;;;;20.35;66.92;101635.13;697578;28;44369;-61
2021/07/08 00:36:44;;;;;;;4.38;3.97;;;;;;;20.37;66.89;101631.34;698905;28;24605;-61
2021/07/08 00:37:05;;;;;;;4.07;3.70;;;;;;;20.36;66.76;101638.75;698510;28;46604;-60
2021/07/08 00:37:26;;;;;;;4.43;4.03;;;;;;;20.37;66.97;101636.81;699379;28;21526;-61
2021/07/08 00:37:48;;;;;;;4.40;4.10;;;;;;;20.35;66.81;101640.63;699396;28;23561;-61
2021/07/08 00:38:09;;;;;;;4.30;4.00;;;;;;;20.36;66.93;101641.47;698378;28;46335;-59
2021/07/08 00:38:30;;;;;;;4.13;3.83;;;;;;;20.35;66.94;101637.03;698957;28;22393;-61
2021/07/08 00:38:52;;;;;;;4.65;3.97;;;;;;;20.37;66.88;101636.81;699093;28;22405;-61
2021/07/08 00:39:15;;;;;;;5.22;4.15;;;;;;;20.37;66.86;101640.41;695934;28;21682;-59
2021/07/08 00:39:36;;;;;;;4.30;4.00;;;;;;;20.36;66.93;101633.25;693258;28;92209;-59
2021/07/08 00:39:57;;;;;;;4.43;4.00;;;;;;;20.37;66.82;101637.66;695664;28;21536;-61
2021/07/08 00:40:18;;;;;;;4.88;4.28;;;;;;;20.38;66.86;101633.88;696626;28;22447;-61
2021/07/08 00:40:41;;;;;;;4.60;4.30;;;;;;;20.38;66.65;101636.59;695976;28;20943;-61
2021/07/08 00:41:02;;;;;;;4.50;4.20;;;;;;;20.38;66.70;101636.59;696074;28;57472;-61
2021/07/08 00:41:24;;;;;;;4.15;3.85;;;;;;;20.39;66.70;101638.31;699288;28;21565;-60
2021/07/08 00:41:45;;;;;;;4.50;4.20;;;;;;;20.40;66.86;101641.88;699419;28;22401;-61
2021/07/08 00:42:06;;;;;;;4.50;4.20;;;;;;;20.39;67.18;101638.31;698577;28;23507;-61
2021/07/08 00:42:28;;;;;;;4.55;4.25;;;;;;;20.41;66.59;101638.06;699310;28;22470;-60
2021/07/08 00:42:50;;;;;;;4.20;4.00;;;;;;;20.40;66.83;101636.38;697908;28;40125;-59
2021/07/08 00:43:11;;;;;;;4.18;3.97;;;;;;;20.40;66.57;101634.47;695173;28;46368;-59
2021/07/08 00:43:32;;;;;;;4.60;4.20;;;;;;;20.39;66.75;101638.31;696691;28;18149;-60
2021/07/08 00:43:54;;;;;;;4.30;3.90;;;;;;;20.39;66.72;101635.56;697095;28;20414;-60
2021/07/08 00:44:15;;;;;;;4.15;3.80;;;;;;;20.39;66.52;101631.94;698274;28;36615;-59
2021/07/08 00:44:36;;;;;;;4.18;3.90;;;;;;;20.39;66.56;101637.44;698897;28;22407;-61
2021/07/08 00:44:57;;;;;;;4.45;4.05;;;;;;;20.35;66.76;101631.56;699232;28;21525;-60
2021/07/08 00:45:20;;;;;;;4.53;4.22;;;;;;;20.39;66.51;101631.94;699314;28;22186;-60
2021/07/08 00:45:42;;;;;;;4.50;4.20;;;;;;;20.39;66.70;101627.31;697683;28;67488;-60
2021/07/08 00:46:04;;;;;;;4.32;4.00;;;;;;;20.37;66.66;101634.91;698290;28;44382;-60
2021/07/08 00:46:25;;;;;;;4.53;4.22;;;;;;;20.38;66.49;101633.88;697701;28;47105;-60
2021/07/08 00:46:46;;;;;;;4.18;3.88;;;;;;;20.37;66.79;101631.34;699211;28;20292;-61
2021/07/08 00:47:08;;;;;;;5.88;4.30;;;;;;;20.34;66.80;101629.88;699866;28;962;-59
2021/07/08 00:47:30;;;;;;;5.60;4.22;;;;;;;20.33;66.63;101630.94;698964;28;23479;-59
2021/07/08 00:47:52;;;;;;;4.70;4.30;;;;;;;20.33;66.76;101631.78;698017;28;46399;-60
2021/07/08 00:48:14;;;;;;;4.25;4.00;;;;;;;20.32;66.63;101627.34;699674;28;1378;-59
2021/07/08 00:48:36;;;;;;;4.38;4.07;;;;;;;20.33;66.53;101629.03;698672;28;46391;-59
2021/07/08 00:48:57;;;;;;;4.33;4.07;;;;;;;20.33;66.88;101619.97;698419;28;46260;-60
2021/07/08 00:49:18;;;;;;;4.63;4.22;;;;;;;20.33;66.93;101631.78;698711;28;29805;-61
2021/07/08 00:49:39;;;;;;;4.60;4.30;;;;;;;20.34;66.78;101628.00;699332;28;5604;-60
2021/07/08 00:50:00;;;;;;;4.40;4.15;;;;;;;20.32;66.79;101624.59;699449;28;22405;-59
2021/07/08 00:50:23;;;;;;;4.20;3.90;;;;;;;20.32;66.80;101623.78;699352;28;22481;-61
2021/07/08 00:50:46;;;;;;;4.40;4.00;;;;;;;20.32;66.62;101624.59;697476;28;60780;-61
2021/07/08 00:51:07;;;;;;;4.57;4.28;;;;;;;20.32;66.78;101634.75;697197;28;59627;-61
2021/07/08 00:51:28;;;;;;;4.90;4.50;;;;;;;20.33;66.61;101633.69;699163;28;21038;-57
2021/07/08 00:51:49;;;;;;;4.78;4.38;;;;;;;20.33;66.66;101622.72;699490;28;12905;-61
2021/07/08 00:52:10;;;;;;;4.30;3.90;;;;;;;20.33;66.83;101628.22;698608;28;16750;-60
2021/07/08 00:52:33;;;;;;;4.22;3.95;;;;;;;20.32;66.76;101630.09;699557;28;21338;-59
2021/07/08 00:52:54;;;;;;;4.50;4.20;;;;;;;20.31;67.06;101624.81;698067;28;46467;-61
2021/07/08 00:53:21;;;;;;;4.38;4.07;;;;;;;20.33;66.72;101625.47;699011;28;22412;-58
2021/07/08 00:53:43;;;;;;;4.25;3.95;;;;;;;20.31;66.62;101625.69;695463;28;138806;-60
2021/07/08 00:54:04;;;;;;;4.55;4.25;;;;;;;20.32;66.73;101630.09;698541;28;45885;-61
2021/07/08 00:54:26;;;;;;;4.30;4.00;;;;;;;20.32;66.82;101629.25;698590;28;20894;-59
2021/07/08 00:54:47;;;;;;;4.57;4.15;;;;;;;20.32;66.71;101624.59;697583;28;69490;-60
2021/07/08 00:55:10;;;;;;;5.33;4.50;;;;;;;20.32;66.58;101624.59;699522;28;28489;-61
2021/07/08 00:55:32;;;;;;;4.70;4.40;;;;;;;20.31;66.82;101619.34;698138;28;67340;-59
2021/07/08 00:55:56;;;;;;;4.60;4.30;;;;;;;20.33;66.65;101628.22;700014;28;860;-60
2021/07/08 00:56:17;;;;;;;4.50;4.20;;;;;;;20.32;66.76;101632.00;696626;28;77232;-59
2021/07/08 00:56:39;;;;;;;4.22;4.00;;;;;;;20.32;66.73;101627.34;700273;28;1648;-60
2021/07/08 00:57:03;;;;;;;4.40;4.00;;;;;;;20.32;66.76;101626.50;698726;28;23821;-61
2021/07/08 00:57:24;;;;;;;4.38;4.07;;;;;;;20.32;66.81;101627.34;697016;28;82703;-61
2021/07/08 00:57:52;;;;;;;4.57;4.28;;;;;;;20.31;66.86;101625.69;699180;28;21029;-61
2021/07/08 00:58:14;;;;;;;4.78;4.47;;;;;;;20.31;66.75;101622.94;694595;28;137720;-61
2021/07/08 00:58:36;;;;;;;4.38;4.15;;;;;;;20.31;66.63;101620.19;698128;28;46295;-61
2021/07/08 00:59:05;;;;;;;4.25;3.95;;;;;;;20.32;66.79;101621.84;698542;28;45236;-61
2021/07/08 00:59:26;;;;;;;4.53;4.15;;;;;;;20.33;66.70;101625.47;693842;28;138424;-61
2021/07/08 00:59:49;;;;;;;4.60;4.20;;;;;;;20.33;66.57;101623.56;699267;28;21516;-61
2021/07/08 01:00:12;;;;;;;4.80;4.35;;;;;;;20.32;66.60;101627.34;697113;28;70303;-59
2021/07/08 01:00:35;;;;;;;5.28;4.22;;;;;;;20.33;66.70;101625.47;697992;28;68457;-59
2021/07/08 01:00:56;;;;;;;4.63;4.28;;;;;;;20.33;66.61;101618.06;697625;28;59225;-61
2021/07/08 01:01:17;;;;;;;4.72;4.40;;;;;;;20.34;66.62;101617.00;699002;28;23516;-61
2021/07/08 01:01:40;;;;;;;4.65;4.35;;;;;;;20.35;66.60;101620.59;699442;28;23419;-58
2021/07/08 01:02:01;;;;;;;4.63;4.18;;;;;;;20.34;66.55;101618.91;697603;28;69511;-59
2021/07/08 01:02:23;;;;;;;4.32;3.92;;;;;;;20.34;66.58;101616.16;698136;28;22487;-58
2021/07/08 01:02:44;;;;;;;4.53;4.22;;;;;;;20.35;66.42;101620.59;696920;28;46388;-61
2021/07/08 01:03:09;;;;;;;4.70;4.30;;;;;;;20.35;66.73;101617.84;697517;28;8848;-59
2021/07/08 01:03:30;;;;;;;4.63;4.15;;;;;;;20.36;66.59;101611.31;694695;28;93195;-61
2021/07/08 01:03:52;;;;;;;4.25;3.95;;;;;;;20.37;66.27;101614.88;697172;28;44413;-59
2021/07/08 01:04:14;;;;;;;4.13;3.92;;;;;;;20.37;66.46;101615.72;699006;28;12452;-59
2021/07/08 01:04:36;;;;;;;4.40;4.15;;;;;;;20.36;66.29;101614.06;697807;28;46320;-59
2021/07/08 01:04:58;;;;;;;4.88;4.57;;;;;;;20.35;66.54;101609.63;698171;28;46296;-61
2021/07/08 01:05:21;;;;;;;4.28;4.07;;;;;;;20.34;66.49;101618.91;697899;28;47522;-61
2021/07/08 01:05:44;;;;;;;4.10;3.83;;;;;;;20.33;66.39;101615.31;697026;28;93005;-61
2021/07/08 01:06:07;;;;;;;4.20;4.00;;;;;;;20.33;66.42;101612.56;697149;28;69309;-58
2021/07/08 01:06:29;;;;;;;4.22;4.03;;;;;;;20.31;66.33;101609.22;697506;28;46455;-59
2021/07/08 01:06:53;;;;;;;4.60;4.30;;;;;;;20.33;66.32;101622.72;698435;28;44161;-60
2021/07/08 01:07:18;;;;;;;4.25;3.95;;;;;;;20.33;66.47;101614.50;695740;28;116014;-59
2021/07/08 01:07:39;;;;;;;4.30;4.10;;;;;;;20.32;66.46;101615.53;696911;28;90316;-61
2021/07/08 01:08:02;;;;;;;4.32;4.05;;;;;;;20.33;66.47;101622.72;698251;28;22465;-61
2021/07/08 01:08:23;;;;;;;4.55;4.25;;;;;;;20.32;66.46;101621.84;696993;28;69176;-59
2021/07/08 01:08:44;;;;;;;4.60;4.20;;;;;;;20.32;66.60;101626.50;699697;28;23462;-60
2021/07/08 01:09:05;;;;;;;4.80;4.40;;;;;;;20.32;66.55;101623.78;699510;28;23446;-61
2021/07/08 01:09:29;;;;;;;4.88;4.55;;;;;;;20.31;66.67;101619.34;699528;28;1048;-61
2021/07/08 01:09:51;;;;;;;4.75;4.40;;;;;;;20.29;66.61;101622.28;697074;28;67472;-61
2021/07/08 01:10:13;;;;;;;4.75;4.35;;;;;;;20.30;66.50;101623.16;699310;28;21062;-61
2021/07/08 01:10:34;;;;;;;4.65;4.05;;;;;;;20.29;66.66;101614.06;697247;28;36737;-61
2021/07/08 01:10:57;;;;;;;4.75;4.38;;;;;;;20.28;66.73;101606.06;699603;28;1360;-61
2021/07/08 01:11:18;;;;;;;4.78;4.47;;;;;;;20.28;66.76;101615.16;697720;28;45089;-61
2021/07/08 01:11:40;;;;;;;4.63;4.32;;;;;;;20.28;66.84;101617.03;699130;28;23533;-61
2021/07/08 01:12:01;;;;;;;4.53;4.22;;;;;;;20.26;66.91;101611.75;699389;28;20763;-61
2021/07/08 01:12:22;;;;;;;4.60;4.30;;;;;;;20.26;66.86;101611.75;699542;28;1286;-59
2021/07/08 01:12:44;;;;;;;4.70;4.40;;;;;;;20.25;66.78;101615.59;699829;28;1393;-61
2021/07/08 01:13:07;;;;;;;4.50;4.20;;;;;;;20.24;66.86;101613.06;699204;28;1542;-61
2021/07/08 01:13:28;;;;;;;4.60;4.20;;;;;;;20.25;66.91;101617.47;698068;28;46418;-61
2021/07/08 01:13:49;;;;;;;4.72;4.35;;;;;;;20.23;66.86;101611.38;698158;28;23423;-60
2021/07/08 01:14:10;;;;;;;4.65;4.30;;;;;;;20.22;66.97;101621.50;698966;28;23431;-59
2021/07/08 01:14:31;;;;;;;4.60;4.30;;;;;;;20.21;66.56;101613.50;699348;28;20876;-61
2021/07/08 01:14:53;;;;;;;4.80;4.50;;;;;;;20.20;66.84;101611.81;698955;28;24996;-60
2021/07/08 01:15:14;;;;;;;4.60;4.30;;;;;;;20.21;67.05;101622.56;698239;28;43460;-61
2021/07/08 01:15:35;;;;;;;4.75;4.38;;;;;;;20.22;66.92;101626.13;698759;28;41540;-60
2021/07/08 01:15:56;;;;;;;4.50;4.20;;;;;;;20.21;66.91;101619.81;699523;28;18225;-61
2021/07/08 01:16:17;;;;;;;4.30;4.05;;;;;;;20.22;66.98;101624.25;698121;28;20668;-59
2021/07/08 01:16:40;;;;;;;4.50;4.20;;;;;;;20.21;66.99;101619.00;698748;28;38142;-61
2021/07/08 01:17:01;;;;;;;4.50;4.18;;;;;;;20.20;67.03;101622.78;698809;28;46551;-61
2021/07/08 01:17:22;;;;;;;4.38;4.18;;;;;;;20.17;66.75;101627.66;698029;28;23533;-59
2021/07/08 01:17:44;;;;;;;4.60;4.30;;;;;;;20.18;66.92;101623.00;698225;28;44243;-60
2021/07/08 01:18:06;;;;;;;4.97;4.57;;;;;;;20.17;66.95;101621.31;698898;28;19309;-61
2021/07/08 01:18:27;;;;;;;4.50;4.20;;;;;;;20.14;67.00;101621.75;698579;28;45281;-60
2021/07/08 01:18:48;;;;;;;4.35;4.07;;;;;;;20.13;66.97;101622.84;699535;28;22371;-61
2021/07/08 01:19:10;;;;;;;4.57;4.28;;;;;;;20.12;67.12;101629.38;699260;28;23439;-61
2021/07/08 01:19:34;;;;;;;4.40;4.20;;;;;;;20.11;67.08;101624.94;697789;28;45395;-60
2021/07/08 01:19:55;;;;;;;4.13;3.85;;;;;;;20.10;67.18;101632.31;696868;28;89818;-61
2021/07/08 01:20:18;;;;;;;4.75;4.35;;;;;;;20.09;67.35;101630.63;698781;28;21732;-60
2021/07/08 01:20:40;;;;;;;4.43;4.13;;;;;;;20.09;67.16;101630.63;697729;28;67524;-59
2021/07/08 01:21:18;;;;;;;4.60;4.30;;;;;;;20.08;67.33;101626.22;697989;28;22115;-61
2021/07/08 01:21:40;;;;;;;4.60;4.30;;;;;;;20.07;67.27;101624.53;694967;28;135515;-60
2021/07/08 01:22:02;;;;;;;4.50;4.20;;;;;;;20.09;67.19;101629.81;697599;28;46414;-60
2021/07/08 01:22:23;;;;;;;4.72;4.43;;;;;;;20.09;67.27;101627.06;699128;28;23445;-60
2021/07/08 01:22:44;;;;;;;5.00;4.50;;;;;;;20.10;67.23;101623.25;698702;28;22486;-60
2021/07/08 01:23:07;;;;;;;4.57;4.20;;;;;;;20.11;67.37;101624.94;698235;28;46297;-61
2021/07/08 01:23:28;;;;;;;4.32;4.13;;;;;;;20.10;67.00;101628.75;697277;28;70190;-61
2021/07/08 01:23:49;;;;;;;4.68;4.38;;;;;;;20.10;67.12;101626.84;699014;28;23480;-61
2021/07/08 01:24:10;;;;;;;4.70;4.40;;;;;;;20.09;67.10;101625.16;698749;28;23498;-60
2021/07/08 01:24:32;;;;;;;4.55;4.25;;;;;;;20.10;66.99;101623.25;697778;28;23469;-61
2021/07/08 01:24:55;;;;;;;4.70;4.40;;;;;;;20.10;67.25;101626.84;698986;28;23359;-60
2021/07/08 01:25:18;;;;;;;4.63;4.32;;;;;;;20.11;67.40;101627.66;697699;28;69516;-61
2021/07/08 01:25:42;;;;;;;4.70;4.40;;;;;;;20.11;67.06;101620.31;697445;28;69356;-60
2021/07/08 01:26:03;;;;;;;4.70;4.40;;;;;;;20.12;67.15;101626.63;696655;28;90697;-60
2021/07/08 01:26:25;;;;;;;4.70;4.40;;;;;;;20.13;67.20;101628.31;698398;28;9733;-59
2021/07/08 01:26:46;;;;;;;4.60;4.30;;;;;;;20.12;67.18;101630.19;698311;28;47489;-60
2021/07/08 01:27:08;;;;;;;4.80;4.40;;;;;;;20.14;67.05;101629.97;698139;28;44380;-61
2021/07/08 01:27:29;;;;;;;5.00;4.60;;;;;;;20.14;66.95;101632.72;699207;28;20874;-60
2021/07/08 01:27:52;;;;;;;5.13;4.73;;;;;;;20.14;67.06;101628.09;698321;28;46287;-59
2021/07/08 01:28:13;;;;;;;4.80;4.50;;;;;;;20.12;67.18;101629.38;696746;28;69198;-60
2021/07/08 01:28:34;;;;;;;4.57;4.28;;;;;;;20.09;67.17;101629.81;698903;28;21567;-61
2021/07/08 01:28:56;;;;;;;4.60;4.30;;;;;;;20.09;67.00;101630.63;700218;28;7287;-59
2021/07/08 01:29:17;;;;;;;4.70;4.40;;;;;;;20.07;67.28;101623.72;698468;28;35344;-60
2021/07/08 01:29:39;;;;;;;4.30;4.10;;;;;;;20.07;67.20;101627.28;698440;28;22410;-60
2021/07/08 01:30:00;;;;;;;4.60;4.30;;;;;;;20.07;67.15;101627.28;698333;28;46403;-60
2021/07/08 01:30:21;;;;;;;4.47;4.18;;;;;;;20.06;67.12;101624.75;699408;28;22401;-59
2021/07/08 01:30:46;;;;;;;4.78;4.45;;;;;;;20.05;67.47;101626.66;699332;28;22386;-60
2021/07/08 01:31:07;;;;;;;4.75;4.45;;;;;;;20.04;67.27;101624.97;696054;28;115007;-60
2021/07/08 01:31:30;;;;;;;4.80;4.47;;;;;;;20.03;67.44;101620.56;697911;28;23500;-60
2021/07/08 01:31:51;;;;;;;4.75;4.40;;;;;;;20.03;67.45;101623.31;698515;28;40353;-60
2021/07/08 01:32:12;;;;;;;5.13;4.68;;;;;;;20.03;67.50;101625.19;699448;28;811;-59
2021/07/08 01:32:34;;;;;;;4.88;4.47;;;;;;;20.01;67.55;101619.91;699719;28;846;-60
2021/07/08 01:32:56;;;;;;;4.57;4.25;;;;;;;19.98;67.58;101617.63;699346;28;16802;-58
2021/07/08 01:33:18;;;;;;;4.53;4.13;;;;;;;19.97;67.43;101618.69;696228;28;35440;-60
2021/07/08 01:33:39;;;;;;;4.70;4.18;;;;;;;19.97;67.51;101618.69;696135;28;47348;-60
2021/07/08 01:34:01;;;;;;;4.88;4.40;;;;;;;19.97;67.87;101624.19;696948;28;23591;-59
2021/07/08 01:34:23;;;;;;;4.72;4.35;;;;;;;19.97;67.69;101625.00;697447;28;858;-60
2021/07/08 01:34:44;;;;;;;4.40;4.10;;;;;;;19.97;67.79;101622.28;696883;28;4337;-59
2021/07/08 01:35:08;;;;;;;4.57;4.28;;;;;;;19.97;67.71;101618.69;697549;28;23420;-60
2021/07/08 01:35:29;;;;;;;4.68;4.38;;;;;;;19.97;67.75;101625.00;699288;28;37523;-60
2021/07/08 01:35:51;;;;;;;4.70;4.40;;;;;;;19.97;67.60;101624.19;700600;28;938;-61
2021/07/08 01:36:13;;;;;;;4.72;4.43;;;;;;;19.97;67.65;101624.19;699232;28;24570;-61
2021/07/08 01:36:36;;;;;;;4.65;4.35;;;;;;;19.98;67.71;101625.84;698408;28;45362;-60
2021/07/08 01:36:57;;;;;;;4.90;4.60;;;;;;;19.98;67.64;101620.34;697974;28;65740;-61
2021/07/08 01:37:18;;;;;;;4.82;4.43;;;;;;;19.99;67.59;101616.56;699311;28;30464;-60
2021/07/08 01:37:40;;;;;;;4.68;4.38;;;;;;;19.98;67.67;101623.97;700072;28;22422;-61
2021/07/08 01:38:02;;;;;;;5.05;4.68;;;;;;;19.97;67.57;101622.28;699855;28;14200;-60
2021/07/08 01:38:24;;;;;;;4.40;4.10;;;;;;;19.99;67.52;101622.06;698384;28;58982;-60
2021/07/08 01:38:45;;;;;;;5.00;4.70;;;;;;;20.00;67.49;101629.22;700212;28;22422;-60
2021/07/08 01:39:06;;;;;;;4.68;4.38;;;;;;;20.01;67.36;101624.56;699556;28;22407;-60
2021/07/08 01:39:27;;;;;;;4.70;4.40;;;;;;;20.01;67.30;101627.31;699454;28;22418;-61
2021/07/08 01:39:49;;;;;;;5.00;4.60;;;;;;;20.02;67.31;101627.09;699527;28;21535;-60
2021/07/08 01:40:12;;;;;;;4.93;4.63;;;;;;;20.04;67.15;101626.88;698881;28;47153;-61
2021/07/08 01:40:33;;;;;;;4.57;4.38;;;;;;;20.04;67.26;101629.63;696423;28;67496;-60
2021/07/08 01:40:54;;;;;;;4.93;4.60;;;;;;;20.03;67.22;101626.06;698198;28;23445;-60
2021/07/08 01:41:17;;;;;;;5.00;4.70;;;;;;;20.04;67.22;101622.22;698526;28;23291;-60
2021/07/08 01:41:38;;;;;;;5.20;4.70;;;;;;;20.06;67.11;101633.84;698333;28;69437;-60
2021/07/08 01:41:59;;;;;;;5.10;4.70;;;;;;;20.07;67.04;101629.19;700165;28;22389;-60
2021/07/08 01:42:20;;;;;;;4.95;4.55;;;;;;;20.08;67.11;101630.88;699669;28;21526;-59
2021/07/08 01:42:41;;;;;;;5.20;4.70;;;;;;;20.09;67.05;101627.06;699302;28;22394;-59
2021/07/08 01:43:03;;;;;;;4.78;4.47;;;;;;;20.09;67.08;101633.38;698540;28;22466;-60